createdAt,value
2022-08-03T00:00:26.626Z,99964.34
2022-08-03T00:02:54.046Z,99958.31
2022-08-03T00:05:20.907Z,99954.87
2022-08-03T00:07:48.428Z,99954.87
2022-08-03T00:10:17.321Z,99960.63
2022-08-03T00:12:44.085Z,99962.44
2022-08-03T00:15:15.097Z,99960.97
2022-08-03T00:17:53.515Z,99964.16
2022-08-03T00:20:23.901Z,99966.03
2022-08-03T00:22:51.551Z,99963.66
2022-08-03T00:25:18.399Z,99962.25
2022-08-03T00:27:45.479Z,99971.59
2022-08-03T00:30:15.413Z,99964.00
2022-08-03T00:32:45.402Z,99959.66
2022-08-03T00:35:18.254Z,99971.00
2022-08-03T00:37:59.461Z,99959.88
2022-08-03T00:40:26.344Z,99964.19
2022-08-03T00:42:56.904Z,99965.31
2022-08-03T00:45:27.828Z,99963.34
2022-08-03T00:47:56.136Z,99961.91
2022-08-03T00:50:23.402Z,99965.72
2022-08-03T00:52:50.750Z,99972.59
2022-08-03T00:55:17.907Z,99974.06
2022-08-03T00:57:44.768Z,99971.84
2022-08-03T01:00:12.911Z,99976.69
2022-08-03T01:02:39.793Z,99970.94
2022-08-03T01:05:07.406Z,99975.19
2022-08-03T01:07:40.401Z,99979.03
2022-08-03T01:10:10.474Z,99968.31
2022-08-03T01:12:44.063Z,99970.16
2022-08-03T01:15:16.214Z,99969.41
2022-08-03T01:17:44.027Z,99969.69
2022-08-03T01:20:15.026Z,99975.84
2022-08-03T01:23:01.023Z,99975.72
2022-08-03T01:25:39.341Z,99971.50
2022-08-03T01:28:22.311Z,99976.63
2022-08-03T01:30:50.519Z,99972.97
2022-08-03T01:33:19.746Z,99969.00
2022-08-03T01:36:01.112Z,99972.03
2022-08-03T01:38:36.703Z,99976.00
2022-08-03T01:41:05.151Z,99969.78
2022-08-03T01:44:27.357Z,99970.63
2022-08-03T01:46:20.870Z,99974.97
2022-08-03T01:48:48.959Z,99963.94
2022-08-03T01:51:17.365Z,99971.84
2022-08-03T01:53:44.934Z,99968.72
2022-08-03T01:56:12.910Z,99970.84
2022-08-03T01:58:40.409Z,99966.12
2022-08-03T02:01:08.432Z,99971.09
2022-08-03T02:03:59.867Z,99974.78
2022-08-03T02:06:59.909Z,99970.16
2022-08-03T02:09:16.638Z,99976.53
2022-08-03T02:11:44.179Z,99979.28
2022-08-03T02:14:12.463Z,99977.56
2022-08-03T02:16:40.723Z,99970.59
2022-08-03T02:19:08.243Z,99976.75
2022-08-03T02:21:57.431Z,99976.91
2022-08-03T02:24:24.695Z,99975.63
2022-08-03T02:35:42.881Z,99981.22
2022-08-03T02:38:11.722Z,99981.69
2022-08-03T02:40:39.326Z,99979.94
2022-08-03T02:43:08.485Z,99979.91
2022-08-03T02:45:36.998Z,99981.00
2022-08-03T02:48:05.511Z,99983.13
2022-08-03T02:50:34.383Z,99980.34
2022-08-03T02:53:02.398Z,99972.59
2022-08-03T02:55:29.899Z,99984.94
2022-08-03T02:57:57.385Z,99981.31
2022-08-03T03:00:31.007Z,99982.28
2022-08-03T03:03:00.302Z,99984.53
2022-08-03T03:05:55.240Z,99981.47
2022-08-03T03:08:18.850Z,99978.59
2022-08-03T03:10:48.306Z,99983.94
2022-08-03T03:13:15.541Z,99980.69
2022-08-03T03:15:42.405Z,99991.31
2022-08-03T03:18:10.134Z,99981.69
2022-08-03T03:20:37.543Z,99985.06
2022-08-03T03:23:04.433Z,99986.37
2022-08-03T03:25:32.394Z,99976.13
2022-08-03T03:28:02.507Z,99980.84
2022-08-03T03:30:29.969Z,99984.66
2022-08-03T03:32:57.739Z,99987.56
2022-08-03T03:35:24.852Z,99976.19
2022-08-03T03:37:52.022Z,99989.84
2022-08-03T03:40:19.535Z,99983.97
2022-08-03T03:42:46.546Z,99986.63
2022-08-03T03:45:13.292Z,99986.37
2022-08-03T03:47:40.049Z,99988.19
2022-08-03T03:50:07.711Z,99989.44
2022-08-03T03:52:34.592Z,99986.25
2022-08-03T03:55:01.864Z,99985.16
2022-08-03T03:57:29.456Z,99984.06
2022-08-03T03:59:56.320Z,99989.75
2022-08-03T04:02:23.963Z,99981.88
2022-08-03T04:05:10.031Z,99991.81
2022-08-03T04:08:05.675Z,99993.72
2022-08-03T04:10:51.562Z,99990.00
2022-08-03T04:13:18.252Z,99992.47
2022-08-03T04:15:45.209Z,100002.28
2022-08-03T04:18:12.696Z,100000.81
2022-08-03T04:20:39.392Z,100006.91
2022-08-03T04:23:13.551Z,100011.41
2022-08-03T04:25:42.703Z,100015.59
2022-08-03T04:28:30.871Z,100014.19
2022-08-03T04:30:56.905Z,100019.16
2022-08-03T04:33:25.020Z,100020.78
2022-08-03T04:36:02.818Z,100014.88
2022-08-03T04:38:37.075Z,100019.97
2022-08-03T04:41:03.889Z,100018.06
2022-08-03T04:43:30.934Z,100023.03
2022-08-03T04:45:57.694Z,100019.94
2022-08-03T04:48:25.023Z,100019.31
2022-08-03T04:50:51.987Z,100017.78
2022-08-03T04:53:19.618Z,100021.84
2022-08-03T04:55:46.439Z,100031.91
2022-08-03T04:58:13.803Z,100041.53
2022-08-03T05:00:40.802Z,100044.94
2022-08-03T05:03:20.021Z,100038.28
2022-08-03T05:06:01.902Z,100036.66
2022-08-03T05:08:36.283Z,100043.31
2022-08-03T05:11:13.956Z,100048.03
2022-08-03T05:13:40.873Z,100048.47
2022-08-03T05:16:07.835Z,100054.66
2022-08-03T05:18:35.994Z,100045.69
2022-08-03T05:21:04.987Z,100057.22
2022-08-03T05:23:31.739Z,100054.19
2022-08-03T05:25:58.741Z,100046.75
2022-08-03T05:28:25.428Z,100052.53
2022-08-03T05:30:52.127Z,100048.03
2022-08-03T05:33:19.170Z,100054.69
2022-08-03T05:36:00.745Z,100052.56
2022-08-03T05:38:34.879Z,100056.88
2022-08-03T05:41:20.578Z,100057.22
2022-08-03T05:43:49.698Z,100058.59
2022-08-03T05:46:16.489Z,100058.34
2022-08-03T05:48:43.665Z,100059.78
2022-08-03T05:51:11.885Z,100059.78
2022-08-03T05:53:39.926Z,100063.00
2022-08-03T05:56:13.731Z,100061.00
2022-08-03T05:58:42.260Z,100064.75
2022-08-03T06:01:09.066Z,100064.22
2022-08-03T06:03:36.114Z,100065.94
2022-08-03T06:06:02.965Z,100068.59
2022-08-03T06:08:29.892Z,100074.91
2022-08-03T06:10:56.843Z,100076.72
2022-08-03T06:13:25.970Z,100079.12
2022-08-03T06:15:52.657Z,100075.97
2022-08-03T06:18:20.105Z,100083.81
2022-08-03T06:20:47.196Z,100072.72
2022-08-03T06:23:17.814Z,100079.34
2022-08-03T06:25:45.194Z,100073.28
2022-08-03T06:28:35.180Z,100069.97
2022-08-03T06:31:02.903Z,100078.25
2022-08-03T06:34:30.096Z,100080.59
2022-08-03T06:36:17.299Z,100078.28
2022-08-03T06:38:44.134Z,100081.06
2022-08-03T06:41:10.934Z,100081.22
2022-08-03T06:44:02.913Z,100083.34
2022-08-03T06:46:24.802Z,100089.50
2022-08-03T06:48:53.240Z,100089.09
2022-08-03T06:51:20.037Z,100089.69
2022-08-03T06:53:46.755Z,100088.53
2022-08-03T06:56:13.712Z,100088.28
2022-08-03T06:58:40.509Z,100087.28
2022-08-03T07:01:07.282Z,100093.69
2022-08-03T07:03:34.310Z,100090.59
2022-08-03T07:06:02.288Z,100087.09
2022-08-03T07:08:33.461Z,100093.31
2022-08-03T07:11:01.710Z,100088.56
2022-08-03T07:13:28.412Z,100091.50
2022-08-03T07:15:56.412Z,100084.81
2022-08-03T07:18:29.399Z,100094.25
2022-08-03T07:20:57.492Z,100091.34
2022-08-03T07:23:25.528Z,100090.53
2022-08-03T07:25:53.323Z,100094.37
2022-08-03T07:28:20.362Z,100089.72
2022-08-03T07:30:47.607Z,100092.03
2022-08-03T07:33:15.263Z,100091.13
2022-08-03T07:35:42.105Z,100094.91
2022-08-03T07:38:09.814Z,100084.41
2022-08-03T07:40:36.680Z,100087.25
2022-08-03T07:43:03.968Z,100085.25
2022-08-03T07:45:31.392Z,100086.19
2022-08-03T07:47:58.102Z,100079.19
2022-08-03T07:50:25.781Z,100082.09
2022-08-03T07:52:54.042Z,100088.88
2022-08-03T07:55:21.613Z,100087.56
2022-08-03T07:57:58.915Z,100087.13
2022-08-03T08:00:26.317Z,100083.28
2022-08-03T08:02:53.289Z,100083.69
2022-08-03T08:05:20.592Z,100075.47
2022-08-03T08:07:51.127Z,100076.66
2022-08-03T08:10:18.871Z,100079.22
2022-08-03T08:12:53.469Z,100077.06
2022-08-03T08:15:24.958Z,100082.84
2022-08-03T08:17:54.000Z,100075.22
2022-08-03T08:20:27.035Z,100084.13
2022-08-03T08:22:57.025Z,100082.78
2022-08-03T08:25:25.095Z,100083.00
2022-08-03T08:28:31.105Z,100078.03
2022-08-03T08:30:40.412Z,100080.91
2022-08-03T08:33:08.648Z,100088.25
2022-08-03T08:35:37.915Z,100087.63
2022-08-03T08:38:06.559Z,100082.00
2022-08-03T08:40:33.866Z,100078.00
2022-08-03T08:43:00.713Z,100076.66
2022-08-03T08:45:28.360Z,100080.69
2022-08-03T08:48:00.341Z,100076.28
2022-08-03T08:50:28.869Z,100074.37
2022-08-03T08:52:55.763Z,100070.03
2022-08-03T08:55:23.398Z,100074.09
2022-08-03T08:57:52.792Z,100067.50
2022-08-03T09:00:19.916Z,100073.09
2022-08-03T09:02:47.035Z,100075.69
2022-08-03T09:05:14.810Z,100073.34
2022-08-03T09:07:41.873Z,100068.72
2022-08-03T09:10:12.921Z,100068.72
2022-08-03T09:12:44.234Z,100066.69
2022-08-03T09:15:17.583Z,100071.81
2022-08-03T09:17:47.649Z,100063.69
2022-08-03T09:20:18.126Z,100055.50
2022-08-03T09:22:53.564Z,100054.53
2022-08-03T09:25:24.960Z,100058.38
2022-08-03T09:27:52.422Z,100053.00
2022-08-03T09:30:34.549Z,100053.03
2022-08-03T09:33:02.934Z,100056.19
2022-08-03T09:35:53.517Z,100048.75
2022-08-03T09:38:18.878Z,100047.66
2022-08-03T09:40:46.192Z,100054.94
2022-08-03T09:43:13.941Z,100052.38
2022-08-03T09:45:41.050Z,100048.13
2022-08-03T09:48:21.155Z,100039.66
2022-08-03T09:50:58.487Z,100040.59
2022-08-03T09:53:58.620Z,100036.25
2022-08-03T09:56:43.049Z,100037.88
2022-08-03T09:59:14.119Z,100036.00
2022-08-03T10:01:41.925Z,100032.69
2022-08-03T10:04:11.745Z,100031.34
2022-08-03T10:06:39.206Z,100025.75
2022-08-03T10:09:10.375Z,100017.03
2022-08-03T10:11:41.802Z,100022.97
2022-08-03T10:14:10.096Z,100022.12
2022-08-03T10:16:38.705Z,100021.09
2022-08-03T10:19:06.436Z,100022.63
2022-08-03T10:21:36.582Z,100019.91
2022-08-03T10:24:05.111Z,100014.28
2022-08-03T10:26:33.533Z,100015.38
2022-08-03T10:29:01.467Z,100011.44
2022-08-03T10:31:31.637Z,100006.50
2022-08-03T10:33:58.357Z,100002.84
2022-08-03T10:36:25.645Z,100001.03
2022-08-03T10:38:53.694Z,100002.41
2022-08-03T10:41:21.308Z,100001.19
2022-08-03T10:43:50.767Z,100002.78
2022-08-03T10:46:18.218Z,99996.28
2022-08-03T10:48:45.252Z,99994.78
2022-08-03T10:51:12.121Z,99999.69
2022-08-03T10:53:40.505Z,99992.31
2022-08-03T10:56:49.859Z,99981.97
2022-08-03T10:59:27.717Z,99986.06
2022-08-03T11:01:58.697Z,99982.78
2022-08-03T11:04:30.015Z,99976.50
2022-08-03T11:07:16.127Z,99989.16
2022-08-03T11:09:49.906Z,99978.03
2022-08-03T11:12:30.393Z,99977.78
2022-08-03T11:15:04.426Z,99967.25
2022-08-03T11:17:31.881Z,99962.31
2022-08-03T11:19:58.811Z,99967.88
2022-08-03T11:22:28.259Z,99959.12
2022-08-03T11:24:56.365Z,99949.25
2022-08-03T11:27:23.841Z,99947.03
2022-08-03T11:30:07.297Z,99953.34
2022-08-03T11:32:37.247Z,99951.41
2022-08-03T11:35:11.400Z,99961.47
2022-08-03T11:38:03.325Z,99952.56
2022-08-03T11:40:35.655Z,99952.41
2022-08-03T11:43:02.973Z,99956.13
2022-08-03T11:45:29.812Z,99943.72
2022-08-03T11:48:00.753Z,99939.75
2022-08-03T11:50:27.876Z,99944.66
2022-08-03T11:52:54.937Z,99936.25
2022-08-03T11:55:22.355Z,99940.63
2022-08-03T11:59:12.893Z,99945.50
2022-08-03T12:00:36.938Z,99942.81
2022-08-03T12:03:04.216Z,99943.00
2022-08-03T12:05:34.014Z,99940.47
2022-08-03T12:08:03.555Z,99939.47
2022-08-03T12:10:33.521Z,99930.00
2022-08-03T12:13:01.680Z,99934.41
2022-08-03T12:15:29.297Z,99932.87
2022-08-03T12:17:58.032Z,99931.06
2022-08-03T12:20:34.754Z,99935.09
2022-08-03T12:23:03.295Z,99932.75
2022-08-03T12:25:39.616Z,99933.41
2022-08-03T12:28:37.194Z,99926.97
2022-08-03T12:31:01.029Z,99921.03
2022-08-03T12:33:29.165Z,99921.19
2022-08-03T12:36:07.207Z,99921.88
2022-08-03T12:38:36.432Z,99922.63
2022-08-03T12:41:08.563Z,99913.09
2022-08-03T12:43:39.571Z,99915.50
2022-08-03T12:46:10.643Z,99914.75
2022-08-03T12:48:37.879Z,99911.94
2022-08-03T12:51:08.522Z,99907.84
2022-08-03T12:53:35.545Z,99902.13
2022-08-03T12:56:05.926Z,99901.03
2022-08-03T12:58:35.795Z,99901.25
2022-08-03T13:01:09.856Z,99902.63
2022-08-03T13:03:42.057Z,99899.09
2022-08-03T13:06:14.222Z,99891.66
2022-08-03T13:08:41.379Z,99893.66
2022-08-03T13:11:53.568Z,99884.72
2022-08-03T13:14:19.797Z,99882.03
2022-08-03T13:16:48.035Z,99884.63
2022-08-03T13:19:16.145Z,99880.50
2022-08-03T13:21:53.739Z,99866.19
2022-08-03T13:24:31.892Z,99873.34
2022-08-03T13:26:59.338Z,99873.91
2022-08-03T13:29:26.108Z,99869.78
2022-08-03T13:31:53.112Z,99867.34
2022-08-03T13:34:23.454Z,99868.44
2022-08-03T13:37:09.394Z,99860.06
2022-08-03T13:39:57.457Z,99859.31
2022-08-03T13:42:30.966Z,99863.13
2022-08-03T13:44:58.667Z,99862.56
2022-08-03T13:47:25.601Z,99859.13
2022-08-03T13:50:00.156Z,99863.69
2022-08-03T13:52:31.485Z,99868.12
2022-08-03T13:54:58.823Z,99853.63
2022-08-03T13:58:02.774Z,99846.06
2022-08-03T14:00:12.860Z,99843.50
2022-08-03T14:02:47.889Z,99837.34
2022-08-03T14:05:14.658Z,99837.66
2022-08-03T14:07:41.369Z,99841.44
2022-08-03T14:10:08.853Z,99841.72
2022-08-03T14:12:36.412Z,99832.66
2022-08-03T14:15:04.336Z,99832.16
2022-08-03T14:17:42.284Z,99829.38
2022-08-03T14:20:36.933Z,99833.66
2022-08-03T14:23:04.169Z,99822.62
2022-08-03T14:25:43.172Z,99825.28
2022-08-03T14:28:17.382Z,99822.22
2022-08-03T14:30:45.122Z,99822.97
2022-08-03T14:33:11.920Z,99828.97
2022-08-03T14:35:39.186Z,99824.38
2022-08-03T14:38:06.703Z,99821.31
2022-08-03T14:40:36.183Z,99821.38
2022-08-03T14:43:06.235Z,99818.56
2022-08-03T14:45:34.401Z,99823.63
2022-08-03T14:50:29.392Z,99813.97
2022-08-03T14:50:55.325Z,99815.59
2022-08-03T14:53:23.005Z,99808.97
2022-08-03T14:55:51.915Z,99808.75
2022-08-03T14:58:20.954Z,99807.72
2022-08-03T15:00:49.056Z,99809.47
2022-08-03T15:03:17.265Z,99814.47
2022-08-03T15:05:44.919Z,99813.09
2022-08-03T15:08:11.966Z,99814.62
2022-08-03T15:10:43.821Z,99805.94
2022-08-03T15:13:13.052Z,99815.22
2022-08-03T15:15:39.968Z,99813.03
2022-08-03T15:18:06.872Z,99810.22
2022-08-03T15:20:43.983Z,99812.16
2022-08-03T15:23:12.374Z,99804.00
2022-08-03T15:26:28.329Z,99803.78
2022-08-03T15:28:26.175Z,99806.44
2022-08-03T15:30:54.376Z,99808.88
2022-08-03T15:33:21.346Z,99801.06
2022-08-03T15:35:49.923Z,99801.91
2022-08-03T15:38:17.386Z,99801.78
2022-08-03T15:40:44.150Z,99803.03
2022-08-03T15:43:10.849Z,99790.31
2022-08-03T15:45:37.980Z,99799.25
2022-08-03T15:48:05.489Z,99798.62
2022-08-03T15:50:32.195Z,99798.88
2022-08-03T15:52:59.162Z,99796.41
2022-08-03T15:55:25.941Z,99792.75
2022-08-03T15:59:04.533Z,99796.44
2022-08-03T16:00:40.396Z,99795.94
2022-08-03T16:03:07.556Z,99795.44
2022-08-03T16:05:34.339Z,99801.31
2022-08-03T16:08:03.752Z,99789.59
2022-08-03T16:10:31.399Z,99792.78
2022-08-03T16:13:00.912Z,99791.06
2022-08-03T16:15:27.696Z,99794.44
2022-08-03T16:17:55.733Z,99784.69
2022-08-03T16:20:29.222Z,99784.94
2022-08-03T16:23:08.482Z,99780.56
2022-08-03T16:25:41.886Z,99782.75
2022-08-03T16:28:14.006Z,99780.81
2022-08-03T16:30:44.228Z,99786.63
2022-08-03T16:33:17.319Z,99780.78
2022-08-03T16:35:45.479Z,99780.94
2022-08-03T16:38:18.214Z,99782.53
2022-08-03T16:40:47.162Z,99775.44
2022-08-03T16:43:17.857Z,99784.47
2022-08-03T16:45:46.576Z,99784.72
2022-08-03T16:48:14.011Z,99780.41
2022-08-03T16:50:41.790Z,99787.13
2022-08-03T16:53:09.599Z,99783.25
2022-08-03T16:55:43.216Z,99785.91
2022-08-03T16:58:24.317Z,99785.44
2022-08-03T17:01:01.041Z,99790.19
2022-08-03T17:03:42.738Z,99787.13
2022-08-03T17:06:26.501Z,99791.16
2022-08-03T17:09:02.166Z,99795.66
2022-08-03T17:11:32.949Z,99794.56
2022-08-03T17:13:59.810Z,99794.41
2022-08-03T17:16:26.884Z,99800.53
2022-08-03T17:19:02.128Z,99793.72
2022-08-03T17:21:39.529Z,99802.56
2022-08-03T17:24:12.619Z,99807.78
2022-08-03T17:26:46.222Z,99802.66
2022-08-03T17:29:23.118Z,99803.13
2022-08-03T17:31:52.192Z,99801.66
2022-08-03T17:34:19.958Z,99799.94
2022-08-03T17:37:03.787Z,99808.94
2022-08-03T17:39:57.033Z,99815.53
2022-08-03T17:42:38.790Z,99814.78
2022-08-03T17:45:06.773Z,99809.63
2022-08-03T17:47:42.714Z,99817.44
2022-08-03T17:50:24.047Z,99815.22
2022-08-03T17:52:52.117Z,99815.97
2022-08-03T17:58:12.177Z,99817.69
2022-08-03T18:01:01.706Z,99820.44
2022-08-03T18:03:58.679Z,99821.88
2022-08-03T18:06:28.989Z,99817.19
2022-08-03T18:08:56.516Z,99817.00
2022-08-03T18:11:41.858Z,99827.63
2022-08-03T18:14:17.345Z,99822.59
2022-08-03T18:16:44.906Z,99828.06
2022-08-03T18:19:15.487Z,99832.28
2022-08-03T18:22:03.657Z,99830.12
2022-08-03T18:24:33.320Z,99832.28
2022-08-03T18:27:02.489Z,99836.09
2022-08-03T18:29:30.470Z,99838.69
2022-08-03T18:32:02.265Z,99841.00
2022-08-03T18:34:33.297Z,99847.00
2022-08-03T18:37:07.380Z,99842.06
2022-08-03T18:39:49.661Z,99848.75
2022-08-03T18:42:25.613Z,99849.91
2022-08-03T18:44:56.223Z,99850.84
2022-08-03T18:47:52.282Z,99866.28
2022-08-03T18:50:49.770Z,99858.25
2022-08-03T18:53:19.716Z,99859.06
2022-08-03T18:56:01.603Z,99866.88
2022-08-03T18:58:40.396Z,99865.38
2022-08-03T19:01:15.247Z,99864.97
2022-08-03T19:04:06.518Z,99870.53
2022-08-03T19:06:33.566Z,99870.19
2022-08-03T19:09:04.620Z,99883.12
2022-08-03T19:12:14.560Z,99880.88
2022-08-03T19:14:28.817Z,99882.19
2022-08-03T19:16:59.666Z,99884.28
2022-08-03T19:19:28.648Z,99888.28
2022-08-03T19:22:11.891Z,99884.88
2022-08-03T19:24:43.651Z,99894.59
2022-08-03T19:27:10.835Z,99897.13
2022-08-03T19:29:59.387Z,99902.59
2022-08-03T19:32:26.914Z,99895.31
2022-08-03T19:34:53.843Z,99894.53
2022-08-03T19:37:23.388Z,99898.91
2022-08-03T19:39:56.514Z,99891.12
2022-08-03T19:42:34.139Z,99899.53
2022-08-03T19:45:11.344Z,99898.53
2022-08-03T19:47:45.645Z,99900.25
2022-08-03T19:50:14.107Z,99903.50
2022-08-03T19:52:44.125Z,99904.50
2022-08-03T19:55:12.105Z,99905.34
2022-08-03T19:57:41.120Z,99898.50
2022-08-03T20:00:11.949Z,99898.88
2022-08-03T20:02:40.046Z,99903.84
2022-08-03T20:05:14.958Z,99908.41
2022-08-03T20:07:47.720Z,99912.88
2022-08-03T20:10:16.181Z,99908.38
2022-08-03T20:12:44.436Z,99911.34
2022-08-03T20:15:11.779Z,99918.16
2022-08-03T20:17:54.384Z,99910.56
2022-08-03T20:20:28.614Z,99908.87
2022-08-03T20:22:57.592Z,99909.53
2022-08-03T20:25:38.027Z,99906.53
2022-08-03T20:28:13.446Z,99911.03
2022-08-03T20:30:43.308Z,99909.97
2022-08-03T20:33:10.305Z,99915.09
2022-08-03T20:35:37.042Z,99912.03
2022-08-03T20:38:04.167Z,99910.84
2022-08-03T20:40:31.717Z,99919.22
2022-08-03T20:42:59.786Z,99909.09
2022-08-03T20:46:01.044Z,99915.31
2022-08-03T20:51:05.101Z,99912.03
2022-08-03T20:53:56.975Z,99909.78
2022-08-03T20:56:29.717Z,99910.97
2022-08-03T20:58:56.477Z,99904.28
2022-08-03T21:01:27.934Z,99903.66
2022-08-03T21:04:07.450Z,99899.28
2022-08-03T21:06:38.782Z,99905.31
2022-08-03T21:09:07.984Z,99906.78
2022-08-03T21:11:42.179Z,99908.66
2022-08-03T21:12:55.766Z,99815.97
2022-08-03T21:13:07.506Z,99915.63
2022-08-03T21:14:16.371Z,99906.69
2022-08-03T21:16:43.860Z,99910.47
2022-08-03T21:19:10.924Z,99909.81
2022-08-03T21:21:38.651Z,99914.81
2022-08-03T21:24:05.845Z,99918.75
2022-08-03T21:26:33.873Z,99922.47
2022-08-03T21:29:02.379Z,99915.47
2022-08-03T21:31:29.155Z,99915.47
2022-08-03T21:33:56.941Z,99917.84
2022-08-03T21:36:24.625Z,99921.31
2022-08-03T21:38:56.666Z,99922.31
2022-08-03T21:41:27.943Z,99931.09
2022-08-03T21:43:54.717Z,99926.56
2022-08-03T21:46:21.466Z,99930.63
2022-08-03T21:48:48.742Z,99927.91
2022-08-03T21:51:16.130Z,99942.34
2022-08-03T21:54:02.913Z,99940.47
2022-08-03T21:56:31.577Z,99943.72
2022-08-03T21:59:05.081Z,99942.72
2022-08-03T22:01:35.415Z,99942.47
2022-08-03T22:04:05.098Z,99939.97
2022-08-03T22:06:33.714Z,99939.97
2022-08-03T22:09:00.518Z,99944.41
2022-08-03T22:11:27.525Z,99955.25
2022-08-03T22:13:54.455Z,99956.13
2022-08-03T22:16:21.156Z,99946.94
2022-08-03T22:18:48.135Z,99945.59
2022-08-03T22:21:15.831Z,99942.97
2022-08-03T22:23:47.173Z,99944.88
2022-08-03T22:26:17.990Z,99949.31
2022-08-03T22:29:01.852Z,99954.44
2022-08-03T22:31:57.018Z,99955.25
2022-08-03T22:34:15.679Z,99952.53
2022-08-03T22:36:43.153Z,99955.34
2022-08-03T22:39:09.953Z,99957.31
2022-08-03T22:41:37.078Z,99962.34
2022-08-03T22:44:04.728Z,99955.31
2022-08-03T22:46:32.350Z,99964.00
2022-08-03T22:48:59.162Z,99956.19
2022-08-03T22:51:26.145Z,99959.50
2022-08-03T22:53:52.858Z,99953.72
2022-08-03T22:56:20.611Z,99960.53
2022-08-03T22:58:47.675Z,99966.91
2022-08-03T23:01:14.498Z,99966.38
2022-08-03T23:04:00.382Z,99962.59
2022-08-03T23:06:31.796Z,99959.38
2022-08-03T23:08:58.538Z,99962.53
2022-08-03T23:11:26.311Z,99960.69
2022-08-03T23:13:54.180Z,99957.59
2022-08-03T23:16:28.722Z,99957.63
2022-08-03T23:18:58.859Z,99963.50
2022-08-03T23:21:51.250Z,99967.59
2022-08-03T23:24:29.836Z,99959.84
2022-08-03T23:26:57.983Z,99972.38
2022-08-03T23:29:25.123Z,99960.84
2022-08-03T23:31:51.898Z,99962.41
2022-08-03T23:34:37.787Z,99962.03
2022-08-03T23:37:04.777Z,99970.22
2022-08-03T23:39:35.222Z,99972.38
2022-08-03T23:42:03.030Z,99969.00
2022-08-03T23:44:31.347Z,99970.78
2022-08-03T23:46:58.410Z,99967.88
2022-08-03T23:49:25.334Z,99974.41
2022-08-03T23:51:53.198Z,99968.75
2022-08-03T23:54:27.034Z,99958.28
2022-08-03T23:56:55.381Z,99967.59
2022-08-03T23:59:22.073Z,99969.13
